createdAt,value
2018-12-06T00:01:43.517Z,16.40
2018-12-06T00:04:12.127Z,16.83
2018-12-06T00:06:40.866Z,17.47
2018-12-06T00:09:09.450Z,15.90
2018-12-06T00:11:38.063Z,15.60
2018-12-06T00:14:06.704Z,15.50
2018-12-06T00:16:35.312Z,15.40
2018-12-06T00:19:08.252Z,15.30
2018-12-06T00:21:37.259Z,14.17
2018-12-06T00:24:06.001Z,17.60
2018-12-06T00:26:34.771Z,16.33
2018-12-06T00:29:03.436Z,16.27
2018-12-06T00:31:32.043Z,16.47
2018-12-06T00:34:00.713Z,15.30
2018-12-06T00:36:29.302Z,14.77
2018-12-06T00:38:58.007Z,16.40
2018-12-06T00:41:26.604Z,16.60
2018-12-06T00:43:55.251Z,15.67
2018-12-06T00:46:23.899Z,14.97
2018-12-06T00:48:52.537Z,16.13
2018-12-06T00:51:21.156Z,17.33
2018-12-06T00:53:49.786Z,15.63
2018-12-06T00:56:18.380Z,16.43
2018-12-06T00:58:47.167Z,17.37
2018-12-06T01:01:15.902Z,16.83
2018-12-06T01:03:44.610Z,17.03
2018-12-06T01:06:13.271Z,17.33
2018-12-06T01:08:42.073Z,17.07
2018-12-06T01:11:10.692Z,17.53
2018-12-06T01:13:39.416Z,17.20
2018-12-06T01:16:08.168Z,17.93
2018-12-06T01:18:36.789Z,16.40
2018-12-06T01:21:05.459Z,16.50
2018-12-06T01:23:34.051Z,17.13
2018-12-06T01:26:02.698Z,17.20
2018-12-06T01:28:31.311Z,18.50
2018-12-06T01:30:59.899Z,15.70
2018-12-06T01:33:28.652Z,17.70
2018-12-06T01:35:57.271Z,17.33
2018-12-06T01:38:26.019Z,16.83
2018-12-06T01:40:54.655Z,16.87
2018-12-06T01:43:23.275Z,19.60
2018-12-06T01:45:52.038Z,17.83
2018-12-06T01:48:21.110Z,18.33
2018-12-06T01:50:49.699Z,19.70
2018-12-06T01:53:18.309Z,20.90
2018-12-06T01:55:46.941Z,20.50
2018-12-06T01:58:15.563Z,20.53
2018-12-06T02:00:44.164Z,21.97
2018-12-06T02:03:12.785Z,20.03
2018-12-06T02:05:41.442Z,21.10
2018-12-06T02:08:10.018Z,21.90
2018-12-06T02:10:38.767Z,21.30
2018-12-06T02:13:07.435Z,22.43
2018-12-06T02:15:36.064Z,22.70
2018-12-06T02:18:04.734Z,22.40
2018-12-06T02:20:33.333Z,22.30
2018-12-06T02:23:02.147Z,24.07
2018-12-06T02:25:30.750Z,24.50
2018-12-06T02:27:59.366Z,23.13
2018-12-06T02:30:28.011Z,23.00
2018-12-06T02:32:56.669Z,22.60
2018-12-06T02:35:25.348Z,25.60
2018-12-06T02:37:53.944Z,23.00
2018-12-06T02:40:22.617Z,22.73
2018-12-06T02:42:51.220Z,22.23
2018-12-06T02:45:19.867Z,22.77
2018-12-06T02:47:48.470Z,21.37
2018-12-06T02:50:17.084Z,21.63
2018-12-06T02:52:45.835Z,22.03
2018-12-06T02:55:14.508Z,22.50
2018-12-06T02:57:43.123Z,21.13
2018-12-06T03:00:11.811Z,21.20
2018-12-06T03:02:40.396Z,21.90
2018-12-06T03:05:09.103Z,23.27
2018-12-06T03:07:37.731Z,22.90
2018-12-06T03:10:06.376Z,23.37
2018-12-06T03:12:35.007Z,24.00
2018-12-06T03:15:03.929Z,21.67
2018-12-06T03:17:32.589Z,23.17
2018-12-06T03:20:01.286Z,22.77
2018-12-06T03:22:29.909Z,23.17
2018-12-06T03:24:58.576Z,21.57
2018-12-06T03:27:27.178Z,21.73
2018-12-06T03:29:55.793Z,23.33
2018-12-06T03:32:24.379Z,22.30
2018-12-06T03:34:53.166Z,22.80
2018-12-06T03:37:21.816Z,22.13
2018-12-06T03:39:50.445Z,22.67
2018-12-06T03:42:19.398Z,21.90
2018-12-06T03:44:48.132Z,21.77
2018-12-06T03:47:16.764Z,22.80
2018-12-06T03:49:45.346Z,20.93
2018-12-06T03:52:14.064Z,21.50
2018-12-06T03:54:42.744Z,23.03
2018-12-06T03:57:11.333Z,22.43
2018-12-06T03:59:39.991Z,24.67
2018-12-06T04:02:08.640Z,24.90
2018-12-06T04:04:37.199Z,24.07
2018-12-06T04:07:05.907Z,26.07
2018-12-06T04:09:34.571Z,26.60
2018-12-06T04:12:03.221Z,25.97
2018-12-06T04:14:31.821Z,25.63
2018-12-06T04:17:00.417Z,27.63
2018-12-06T04:19:29.051Z,27.00
2018-12-06T04:21:57.643Z,28.60
2018-12-06T04:24:26.407Z,28.67
2018-12-06T04:26:55.053Z,29.23
2018-12-06T04:29:23.712Z,29.90
2018-12-06T04:31:52.368Z,30.33
2018-12-06T04:34:21.081Z,28.27
2018-12-06T04:36:49.692Z,30.17
2018-12-06T04:39:18.321Z,28.23
2018-12-06T04:41:46.922Z,30.50
2018-12-06T04:44:15.493Z,29.43
2018-12-06T04:46:44.137Z,31.73
2018-12-06T04:49:12.738Z,32.30
2018-12-06T04:51:41.345Z,34.00
2018-12-06T04:54:10.056Z,35.60
2018-12-06T04:56:38.775Z,34.17
2018-12-06T04:59:07.478Z,36.43
2018-12-06T05:01:36.170Z,33.90
2018-12-06T05:04:04.906Z,34.63
2018-12-06T05:06:33.592Z,35.87
2018-12-06T05:09:02.236Z,35.93
2018-12-06T05:11:30.878Z,36.67
2018-12-06T05:13:59.491Z,38.87
2018-12-06T05:16:28.121Z,36.43
2018-12-06T05:18:56.780Z,38.50
2018-12-06T05:21:25.499Z,39.00
2018-12-06T05:23:54.096Z,39.20
2018-12-06T05:26:22.779Z,38.47
2018-12-06T05:28:51.408Z,40.43
2018-12-06T05:31:20.031Z,41.37
2018-12-06T05:33:48.583Z,40.77
2018-12-06T05:36:17.214Z,41.77
2018-12-06T05:38:45.851Z,43.40
2018-12-06T05:41:14.597Z,41.50
2018-12-06T05:43:43.215Z,46.90
2018-12-06T05:46:11.825Z,45.03
2018-12-06T05:48:40.571Z,45.90
2018-12-06T05:51:09.170Z,44.10
2018-12-06T05:53:37.835Z,44.23
2018-12-06T05:56:06.419Z,44.00
2018-12-06T05:58:35.165Z,44.93
2018-12-06T06:01:03.772Z,41.57
2018-12-06T06:03:32.322Z,44.50
2018-12-06T06:06:01.072Z,45.20
2018-12-06T06:08:29.700Z,44.27
2018-12-06T06:10:58.566Z,44.17
2018-12-06T06:13:27.186Z,44.17
2018-12-06T06:15:55.823Z,44.07
2018-12-06T06:18:24.463Z,41.00
2018-12-06T06:20:53.072Z,46.37
2018-12-06T06:23:21.728Z,42.73
2018-12-06T06:25:50.415Z,41.50
2018-12-06T06:28:19.052Z,40.93
2018-12-06T06:30:47.816Z,38.50
2018-12-06T06:33:16.555Z,40.97
2018-12-06T06:35:45.233Z,41.90
2018-12-06T06:38:13.852Z,37.97
2018-12-06T06:40:42.477Z,40.80
2018-12-06T06:43:11.124Z,37.23
2018-12-06T06:45:39.813Z,39.60
2018-12-06T06:48:08.479Z,40.33
2018-12-06T06:50:37.303Z,38.97
2018-12-06T06:53:05.900Z,38.20
2018-12-06T06:55:34.511Z,38.57
2018-12-06T06:58:03.296Z,36.93
2018-12-06T07:00:31.933Z,39.47
2018-12-06T07:03:00.607Z,34.10
2018-12-06T07:05:29.326Z,36.57
2018-12-06T07:07:58.072Z,35.00
2018-12-06T07:10:26.707Z,33.63
2018-12-06T07:12:55.320Z,36.57
2018-12-06T07:15:24.091Z,35.67
2018-12-06T07:17:52.678Z,38.27
2018-12-06T07:20:21.410Z,36.43
2018-12-06T07:22:50.101Z,36.50
2018-12-06T07:25:18.757Z,37.23
2018-12-06T07:27:47.515Z,38.27
2018-12-06T07:30:16.333Z,37.97
2018-12-06T07:32:44.969Z,39.30
2018-12-06T07:35:13.623Z,37.97
2018-12-06T07:37:42.391Z,40.10
2018-12-06T07:40:11.031Z,37.40
2018-12-06T07:42:39.651Z,39.20
2018-12-06T07:45:08.487Z,41.40
2018-12-06T07:47:37.085Z,41.37
2018-12-06T07:50:06.694Z,42.57
2018-12-06T07:52:35.480Z,41.10
2018-12-06T07:55:04.305Z,41.67
2018-12-06T07:57:32.899Z,40.37
2018-12-06T08:00:01.649Z,43.10
2018-12-06T08:02:30.279Z,39.43
2018-12-06T08:04:58.895Z,39.50
2018-12-06T08:07:27.536Z,42.63
2018-12-06T08:09:56.264Z,41.40
2018-12-06T08:12:24.950Z,40.63
2018-12-06T08:14:53.510Z,40.13
2018-12-06T08:17:22.121Z,38.57
2018-12-06T08:19:50.844Z,42.20
2018-12-06T08:22:19.486Z,41.90
2018-12-06T08:24:48.137Z,40.87
2018-12-06T08:27:16.760Z,41.00
2018-12-06T08:29:45.440Z,40.40
2018-12-06T08:32:14.101Z,41.53
2018-12-06T08:34:42.749Z,42.10
2018-12-06T08:37:11.368Z,45.60
2018-12-06T08:39:39.988Z,45.50
2018-12-06T08:42:08.636Z,41.00
2018-12-06T08:44:37.242Z,45.83
2018-12-06T08:47:06.025Z,46.80
2018-12-06T08:49:34.687Z,44.87
2018-12-06T08:52:03.384Z,44.70
2018-12-06T08:54:32.012Z,47.40
2018-12-06T08:57:00.640Z,43.90
2018-12-06T08:59:29.382Z,43.90
2018-12-06T09:01:57.991Z,49.33
2018-12-06T09:04:26.755Z,47.97
2018-12-06T09:06:55.359Z,49.60
2018-12-06T09:09:24.017Z,47.83
2018-12-06T09:11:52.773Z,48.23
2018-12-06T09:14:21.409Z,45.03
2018-12-06T09:16:50.117Z,48.03
2018-12-06T09:19:18.755Z,45.50
2018-12-06T09:21:47.380Z,48.37
2018-12-06T09:24:16.028Z,47.30
2018-12-06T09:26:44.657Z,45.93
2018-12-06T09:29:13.308Z,41.20
2018-12-06T09:31:41.957Z,43.40
2018-12-06T09:34:10.571Z,39.67
2018-12-06T09:36:39.543Z,40.27
2018-12-06T09:39:10.445Z,40.30
2018-12-06T09:41:39.209Z,38.30
2018-12-06T09:44:07.863Z,38.67
2018-12-06T09:46:36.524Z,43.70
2018-12-06T09:49:05.552Z,43.50
2018-12-06T09:51:34.265Z,41.90
2018-12-06T09:54:03.106Z,40.27
2018-12-06T09:56:31.989Z,40.03
2018-12-06T09:59:00.679Z,38.60
2018-12-06T10:01:29.347Z,39.73
2018-12-06T10:03:58.041Z,40.77
2018-12-06T10:06:26.955Z,39.90
2018-12-06T10:08:55.616Z,37.03
2018-12-06T10:11:24.288Z,39.10
2018-12-06T10:13:52.944Z,38.97
2018-12-06T10:16:21.598Z,37.83
2018-12-06T10:18:50.286Z,39.77
2018-12-06T10:21:18.956Z,40.80
2018-12-06T10:23:47.578Z,36.57
2018-12-06T10:26:16.273Z,38.27
2018-12-06T10:28:45.058Z,40.20
2018-12-06T10:31:13.821Z,39.67
2018-12-06T10:33:42.592Z,39.10
2018-12-06T10:36:11.267Z,40.13
2018-12-06T10:38:39.936Z,41.10
2018-12-06T10:41:08.577Z,41.70
2018-12-06T10:43:37.267Z,39.60
2018-12-06T10:46:05.863Z,44.00
2018-12-06T10:48:34.443Z,40.50
2018-12-06T10:51:14.184Z,43.90
2018-12-06T10:53:42.861Z,43.47
2018-12-06T10:56:11.513Z,44.33
2018-12-06T10:58:40.161Z,45.77
2018-12-06T11:01:11.951Z,43.50
2018-12-06T11:03:45.984Z,41.47
2018-12-06T11:06:14.680Z,45.47
2018-12-06T11:08:43.323Z,47.17
2018-12-06T11:11:12.049Z,43.40
2018-12-06T11:13:40.703Z,41.83
2018-12-06T11:16:09.355Z,43.30
2018-12-06T11:18:38.046Z,44.47
2018-12-06T11:21:06.725Z,45.30
2018-12-06T11:23:35.369Z,41.70
2018-12-06T11:26:04.085Z,39.43
2018-12-06T11:28:32.816Z,40.77
2018-12-06T11:31:01.631Z,39.67
2018-12-06T11:33:30.387Z,40.20
2018-12-06T11:35:59.151Z,38.43
2018-12-06T11:38:27.966Z,40.20
2018-12-06T11:40:56.620Z,41.07
2018-12-06T11:43:25.230Z,36.10
2018-12-06T11:45:53.902Z,38.43
2018-12-06T11:48:26.833Z,34.53
2018-12-06T11:50:53.393Z,30.07
2018-12-06T11:53:22.138Z,33.27
2018-12-06T11:55:50.796Z,33.07
2018-12-06T11:58:19.444Z,32.07
2018-12-06T12:00:48.136Z,31.80
2018-12-06T12:03:16.804Z,31.97
2018-12-06T12:05:45.550Z,31.87
2018-12-06T12:08:14.187Z,31.60
2018-12-06T12:10:42.863Z,31.23
2018-12-06T12:13:11.692Z,31.50
2018-12-06T12:15:40.399Z,31.47
2018-12-06T12:18:09.002Z,29.53
2018-12-06T12:20:37.654Z,30.43
2018-12-06T12:23:06.399Z,29.00
2018-12-06T12:25:35.382Z,29.00
2018-12-06T12:28:04.040Z,29.70
2018-12-06T12:30:32.689Z,28.20
2018-12-06T12:33:01.350Z,28.00
2018-12-06T12:35:30.128Z,28.10
2018-12-06T12:37:58.796Z,23.70
2018-12-06T12:40:27.483Z,21.97
2018-12-06T12:42:56.156Z,23.77
2018-12-06T12:45:26.665Z,23.00
2018-12-06T12:47:55.529Z,21.50
2018-12-06T12:50:24.223Z,21.20
2018-12-06T12:52:52.856Z,20.80
2018-12-06T12:55:21.652Z,20.80
2018-12-06T12:57:50.531Z,17.30
2018-12-06T13:00:19.345Z,16.67
2018-12-06T13:02:48.180Z,16.60
2018-12-06T13:05:17.098Z,15.50
2018-12-06T13:07:45.700Z,16.70
2018-12-06T13:10:14.396Z,17.67
2018-12-06T13:12:43.073Z,16.73
2018-12-06T13:15:11.807Z,17.93
2018-12-06T13:17:40.527Z,18.53
2018-12-06T13:20:09.316Z,18.03
2018-12-06T13:22:38.004Z,18.43
2018-12-06T13:25:07.427Z,18.50
2018-12-06T13:27:36.196Z,18.93
2018-12-06T13:30:05.599Z,18.07
2018-12-06T13:32:34.427Z,18.33
2018-12-06T13:35:03.236Z,17.77
2018-12-06T13:37:31.920Z,16.67
2018-12-06T13:40:00.617Z,17.57
2018-12-06T13:42:29.303Z,20.70
2018-12-06T13:44:58.092Z,19.13
2018-12-06T13:47:26.780Z,22.30
2018-12-06T13:49:55.416Z,22.80
2018-12-06T13:52:24.041Z,27.80
2018-12-06T13:54:52.672Z,27.03
2018-12-06T13:57:21.519Z,29.40
2018-12-06T13:59:50.306Z,27.33
2018-12-06T14:02:19.044Z,29.33
2018-12-06T14:04:47.833Z,29.83
2018-12-06T14:07:16.483Z,30.80
2018-12-06T14:09:46.444Z,31.03
2018-12-06T14:12:15.146Z,31.60
2018-12-06T14:14:43.880Z,34.13
2018-12-06T14:17:12.558Z,32.63
2018-12-06T14:19:41.252Z,33.27
2018-12-06T14:22:09.941Z,32.20
2018-12-06T14:24:38.804Z,34.40
2018-12-06T14:27:07.510Z,33.07
2018-12-06T14:29:36.158Z,31.87
2018-12-06T14:32:04.864Z,30.50
2018-12-06T14:34:33.482Z,30.07
2018-12-06T14:37:02.434Z,32.63
2018-12-06T14:39:31.131Z,28.73
2018-12-06T14:41:59.817Z,26.37
2018-12-06T14:44:28.487Z,25.10
2018-12-06T14:46:57.130Z,23.77
2018-12-06T14:49:25.932Z,23.97
2018-12-06T14:51:54.641Z,24.57
2018-12-06T14:54:23.342Z,24.20
2018-12-06T14:56:52.039Z,23.30
2018-12-06T14:59:20.680Z,25.10
2018-12-06T15:01:49.342Z,22.37
2018-12-06T15:04:18.061Z,23.03
2018-12-06T15:06:46.764Z,30.80
2018-12-06T15:09:15.402Z,23.97
2018-12-06T15:11:44.163Z,24.13
2018-12-06T15:14:12.860Z,24.60
2018-12-06T15:16:44.540Z,25.67
2018-12-06T15:19:16.858Z,26.10
2018-12-06T15:21:45.563Z,28.80
2018-12-06T15:24:14.281Z,28.90
2018-12-06T15:26:42.890Z,26.63
2018-12-06T15:29:11.552Z,28.03
2018-12-06T15:31:40.242Z,25.17
2018-12-06T15:34:08.961Z,27.03
2018-12-06T15:36:37.652Z,27.22
2018-12-06T15:39:08.885Z,27.27
2018-12-06T15:41:37.569Z,26.77
2018-12-06T15:44:06.204Z,26.17
2018-12-06T15:46:34.858Z,26.80
2018-12-06T15:49:03.469Z,26.43
2018-12-06T15:51:32.142Z,26.57
2018-12-06T15:54:00.784Z,27.50
2018-12-06T15:56:29.418Z,28.40
2018-12-06T15:58:58.082Z,28.03
2018-12-06T16:01:26.793Z,27.20
2018-12-06T16:03:55.517Z,26.10
2018-12-06T16:06:24.188Z,26.87
2018-12-06T16:08:52.808Z,25.13
2018-12-06T16:11:21.723Z,26.00
2018-12-06T16:13:50.460Z,25.53
2018-12-06T16:16:19.168Z,26.47
2018-12-06T16:18:47.784Z,23.97
2018-12-06T16:21:16.453Z,23.93
2018-12-06T16:23:45.156Z,23.17
2018-12-06T16:26:13.938Z,23.90
2018-12-06T16:28:42.575Z,23.30
2018-12-06T16:31:11.175Z,24.43
2018-12-06T16:33:39.854Z,24.20
2018-12-06T16:36:08.525Z,24.47
2018-12-06T16:38:37.148Z,25.70
2018-12-06T16:41:05.859Z,25.83
2018-12-06T16:43:34.503Z,23.23
2018-12-06T16:46:03.156Z,23.57
2018-12-06T16:48:31.838Z,24.27
2018-12-06T16:51:00.523Z,25.30
2018-12-06T16:53:29.294Z,26.43
2018-12-06T16:55:57.940Z,24.30
2018-12-06T16:58:26.670Z,24.70
2018-12-06T17:00:55.338Z,26.83
2018-12-06T17:03:24.004Z,27.10
2018-12-06T17:05:52.719Z,24.37
2018-12-06T17:08:21.390Z,25.10
2018-12-06T17:10:50.039Z,24.97
2018-12-06T17:13:18.718Z,25.90
2018-12-06T17:15:47.362Z,27.77
2018-12-06T17:18:16.013Z,26.50
2018-12-06T17:20:44.707Z,27.10
2018-12-06T17:23:13.424Z,28.20
2018-12-06T17:25:42.088Z,26.10
2018-12-06T17:28:10.784Z,26.43
2018-12-06T17:30:39.434Z,27.00
2018-12-06T17:33:08.163Z,25.70
2018-12-06T17:35:36.904Z,25.30
2018-12-06T17:38:05.705Z,26.80
2018-12-06T17:40:34.402Z,26.50
2018-12-06T17:43:03.043Z,26.23
2018-12-06T17:45:31.721Z,27.00
2018-12-06T17:48:00.356Z,27.17
2018-12-06T17:50:29.032Z,25.40
2018-12-06T17:52:57.706Z,28.37
2018-12-06T17:55:26.368Z,25.90
2018-12-06T17:57:55.009Z,27.90
2018-12-06T18:00:23.672Z,27.37
2018-12-06T18:02:52.318Z,27.93
2018-12-06T18:05:20.990Z,28.23
2018-12-06T18:07:49.728Z,27.53
2018-12-06T18:10:18.561Z,28.93
2018-12-06T18:12:47.263Z,28.50
2018-12-06T18:15:16.438Z,28.47
2018-12-06T18:17:45.124Z,28.57
2018-12-06T18:20:13.948Z,28.43
2018-12-06T18:22:42.572Z,28.40
2018-12-06T18:25:11.262Z,27.40
2018-12-06T18:27:39.934Z,28.40
2018-12-06T18:30:08.987Z,27.63
2018-12-06T18:32:37.696Z,26.30
2018-12-06T18:35:06.839Z,28.83
2018-12-06T18:37:35.514Z,27.13
2018-12-06T18:40:04.733Z,28.50
2018-12-06T18:42:33.528Z,29.37
2018-12-06T18:45:02.164Z,28.77
2018-12-06T18:47:30.846Z,28.27
2018-12-06T18:49:59.521Z,30.27
2018-12-06T18:52:28.185Z,30.73
2018-12-06T18:54:56.849Z,27.67
2018-12-06T18:57:25.463Z,30.60
2018-12-06T18:59:54.155Z,31.20
2018-12-06T19:02:22.968Z,31.07
2018-12-06T19:04:51.676Z,33.07
2018-12-06T19:07:20.263Z,30.97
2018-12-06T19:09:49.084Z,32.33
2018-12-06T19:12:17.700Z,32.23
2018-12-06T19:14:46.480Z,30.73
2018-12-06T19:17:15.147Z,28.67
2018-12-06T19:19:43.986Z,31.07
2018-12-06T19:22:12.868Z,29.10
2018-12-06T19:24:41.459Z,31.53
2018-12-06T19:27:10.410Z,30.17
2018-12-06T19:29:40.114Z,30.67
2018-12-06T19:32:08.842Z,31.90
2018-12-06T19:34:37.862Z,28.83
2018-12-06T19:37:06.719Z,29.70
2018-12-06T19:39:35.402Z,29.67
2018-12-06T19:42:04.140Z,30.80
2018-12-06T19:44:33.804Z,30.83
2018-12-06T19:47:02.472Z,31.67
2018-12-06T19:49:31.125Z,28.60
2018-12-06T19:51:59.848Z,30.97
2018-12-06T19:54:28.558Z,32.70
2018-12-06T19:56:57.223Z,30.77
2018-12-06T19:59:25.988Z,30.53
2018-12-06T20:01:54.816Z,32.03
2018-12-06T20:04:23.465Z,35.58
2018-12-06T20:06:52.227Z,32.60
2018-12-06T20:09:22.045Z,30.37
2018-12-06T20:11:50.713Z,31.80
2018-12-06T20:14:19.600Z,30.57
2018-12-06T20:16:48.291Z,31.87
2018-12-06T20:19:16.951Z,30.57
2018-12-06T20:21:45.586Z,31.00
2018-12-06T20:24:14.340Z,32.23
2018-12-06T20:26:42.996Z,30.70
2018-12-06T20:29:11.652Z,29.20
2018-12-06T20:31:40.280Z,29.83
2018-12-06T20:34:08.924Z,29.37
2018-12-06T20:36:37.602Z,30.50
2018-12-06T20:39:07.835Z,28.70
2018-12-06T20:41:36.460Z,30.57
2018-12-06T20:44:05.106Z,29.33
2018-12-06T20:46:33.777Z,28.57
2018-12-06T20:49:02.459Z,29.30
2018-12-06T20:51:31.117Z,30.80
2018-12-06T20:53:59.767Z,30.10
2018-12-06T20:56:28.443Z,30.23
2018-12-06T20:58:57.168Z,28.30
2018-12-06T21:01:25.805Z,28.50
2018-12-06T21:03:54.572Z,28.40
2018-12-06T21:06:23.241Z,37.27
2018-12-06T21:08:51.853Z,28.37
2018-12-06T21:11:20.489Z,26.93
2018-12-06T21:13:49.093Z,25.77
2018-12-06T21:16:17.698Z,26.60
2018-12-06T21:18:46.343Z,27.00
2018-12-06T21:21:14.968Z,25.23
2018-12-06T21:23:43.647Z,26.03
2018-12-06T21:26:12.315Z,27.90
2018-12-06T21:28:41.067Z,26.33
2018-12-06T21:31:09.724Z,26.37
2018-12-06T21:33:38.512Z,25.57
2018-12-06T21:36:07.148Z,27.03
2018-12-06T21:38:35.875Z,27.40
2018-12-06T21:41:04.663Z,26.73
2018-12-06T21:43:33.349Z,25.40
2018-12-06T21:46:01.987Z,24.93
2018-12-06T21:48:30.800Z,26.03
2018-12-06T21:50:59.471Z,25.03
2018-12-06T21:53:28.119Z,24.37
2018-12-06T21:55:56.743Z,22.90
2018-12-06T21:58:25.318Z,23.63
2018-12-06T22:00:54.000Z,23.37
2018-12-06T22:03:22.603Z,21.50
2018-12-06T22:05:51.201Z,21.80
2018-12-06T22:08:19.827Z,19.97
2018-12-06T22:10:48.478Z,18.70
2018-12-06T22:13:17.096Z,19.20
2018-12-06T22:15:46.040Z,18.83
2018-12-06T22:18:14.644Z,21.07
2018-12-06T22:20:43.293Z,20.17
2018-12-06T22:23:12.078Z,19.83
2018-12-06T22:25:40.700Z,18.90
2018-12-06T22:28:09.321Z,17.87
2018-12-06T22:30:37.973Z,21.13
2018-12-06T22:33:06.688Z,20.30
2018-12-06T22:35:35.297Z,20.00
2018-12-06T22:38:04.009Z,21.60
2018-12-06T22:40:32.715Z,20.10
2018-12-06T22:43:01.395Z,20.13
2018-12-06T22:45:53.108Z,24.70
2018-12-06T22:48:22.023Z,19.97
2018-12-06T22:50:50.691Z,18.73
2018-12-06T22:53:19.289Z,19.67
2018-12-06T22:55:47.901Z,18.50
2018-12-06T22:58:16.547Z,17.13
2018-12-06T23:00:51.647Z,17.80
2018-12-06T23:03:22.433Z,19.27
2018-12-06T23:05:52.478Z,16.77
2018-12-06T23:08:21.232Z,16.57
2018-12-06T23:10:49.846Z,15.57
2018-12-06T23:13:18.498Z,16.30
2018-12-06T23:15:48.048Z,15.83
2018-12-06T23:18:16.708Z,14.67
2018-12-06T23:20:45.345Z,15.47
2018-12-06T23:23:14.039Z,16.93
2018-12-06T23:25:42.667Z,16.40
2018-12-06T23:28:12.981Z,17.77
2018-12-06T23:30:41.847Z,16.33
2018-12-06T23:33:10.465Z,17.30
2018-12-06T23:35:39.251Z,17.47
2018-12-06T23:38:07.876Z,16.60
2018-12-06T23:40:36.590Z,16.33
2018-12-06T23:43:05.250Z,17.30
2018-12-06T23:45:34.007Z,17.70
2018-12-06T23:48:02.604Z,16.10
2018-12-06T23:50:31.403Z,17.93
2018-12-06T23:53:00.036Z,15.80
2018-12-06T23:55:29.942Z,16.23
2018-12-06T23:57:58.688Z,16.70
